Time;durP1;ratioP1;P1;durP2;ratioP2;P2;SDS_P1;SDS_P2;PMS_P1;PMS_P2;Temp;Humidity;BMP_temperature;BMP_pressure;BME280_temperature;BME280_humidity;BME280_pressure;Samples;Min_cycle;Max_cycle;Signal;HPM_P1;HPM_P2
2022/07/04 05:47:29;;;;;;;;;;;;;;;29.26;51.44;98420.97;5742968;23;19981;-73
2022/07/04 05:49:58;;;;;;;;;;;;;;;29.17;51.37;98418.31;4834236;29;20289;-73
2022/07/04 05:52:25;;;;;;;;;;;;;;;29.34;51.44;98416.28;4831250;29;20452;-79
2022/07/04 05:54:52;;;;;;;;;;;;;;;29.50;49.94;98414.69;4818866;29;20237;-76
2022/07/04 05:57:20;;;;;;;;;;;;;;;29.62;49.99;98411.28;4830734;29;19953;-78
2022/07/04 05:59:47;;;;;;;;;;;;;;;29.75;51.39;98414.44;4846872;29;20245;-78
2022/07/04 06:02:15;;;;;;;;;;;;;;;29.84;48.24;98425.72;4846875;29;19959;-78
2022/07/04 06:04:43;;;;;;;;;;;;;;;29.99;47.61;98428.31;4847832;29;19946;-77
2022/07/04 06:07:11;;;;;;;;;;;;;;;29.94;47.72;98429.09;4839824;29;19958;-76
2022/07/04 06:09:38;;;;;;;;;;;;;;;30.05;48.89;98420.47;4827665;29;19956;-77
2022/07/04 06:12:05;;;;;;;;;;;;;;;29.97;48.45;98425.19;4827634;29;19950;-76
2022/07/04 06:14:32;;;;;;;;;;;;;;;30.07;48.44;98423.59;4812603;29;19965;-76
2022/07/04 06:17:00;;;;;;;;;;;;;;;29.97;49.25;98416.53;4830555;29;19961;-77
2022/07/04 06:19:27;;;;;;;;;;;;;;;29.91;49.66;98413.66;4838656;29;19954;-76
2022/07/04 06:21:54;;;;;;;;;;;;;;;29.80;50.89;98418.66;4830142;29;19966;-76
2022/07/04 06:24:22;;;;;;;;;;;;;;;29.90;50.87;98409.22;4825629;29;19956;-76
2022/07/04 06:26:50;;;;;;;;;;;;;;;29.84;50.05;98410.50;4827804;29;20250;-76
2022/07/04 06:29:17;;;;;;;;;;;;;;;29.73;50.37;98408.41;4835896;29;19952;-76
2022/07/04 06:31:44;;;;;;;;;;;;;;;29.68;49.20;98400.56;4831881;29;19961;-76
2022/07/04 06:36:57;;;;;;;;;;;;;;;30.00;49.21;98415.47;4830508;29;19959;-75
2022/07/04 06:39:25;;;;;;;;;;;;;;;30.02;49.22;98412.06;4836397;29;19962;-76
2022/07/04 06:41:52;;;;;;;;;;;;;;;30.14;50.23;98419.38;4845646;29;19954;-76
2022/07/04 06:44:19;;;;;;;;;;;;;;;30.13;50.58;98412.81;4836898;29;19981;-77
2022/07/04 06:46:46;;;;;;;;;;;;;;;29.92;50.83;98408.66;4843166;29;19955;-76
2022/07/04 06:49:14;;;;;;;;;;;;;;;30.17;51.28;98415.44;4831553;29;19969;-76
2022/07/04 06:51:41;;;;;;;;;;;;;;;29.97;52.56;98409.97;4837251;29;20238;-76
2022/07/04 06:54:08;;;;;;;;;;;;;;;30.09;52.96;98418.06;4845632;29;20390;-76
2022/07/04 06:56:36;;;;;;;;;;;;;;;30.11;52.72;98417.53;4845836;29;19949;-76
2022/07/04 06:59:04;;;;;;;;;;;;;;;30.17;52.96;98421.22;4839485;29;20340;-73
2022/07/04 07:01:32;;;;;;;;;;;;;;;30.13;53.96;98418.59;4846102;29;20244;-73
2022/07/04 07:03:59;;;;;;;;;;;;;;;30.11;55.26;98411.78;4846045;29;19956;-72
2022/07/04 07:06:26;;;;;;;;;;;;;;;30.20;54.90;98429.56;4846135;29;19946;-73
2022/07/04 07:08:54;;;;;;;;;;;;;;;30.17;55.36;98422.00;4844816;29;19955;-73
2022/07/04 07:11:21;;;;;;;;;;;;;;;30.22;54.91;98431.94;4830460;29;19953;-73
2022/07/04 07:13:51;;;;;;;;;;;;;;;30.40;54.99;98428.50;4823758;29;19984;-73
2022/07/04 07:16:18;;;;;;;;;;;;;;;30.53;56.55;98422.94;4822330;29;19956;-73
2022/07/04 07:18:46;;;;;;;;;;;;;;;30.52;55.84;98421.38;4827811;29;19950;-73
2022/07/04 07:21:13;;;;;;;;;;;;;;;30.45;56.06;98421.94;4826756;29;19959;-73
2022/07/04 07:23:41;;;;;;;;;;;;;;;30.57;56.70;98428.47;4828358;29;19953;-73
2022/07/04 07:26:09;;;;;;;;;;;;;;;30.47;60.21;98420.09;4826967;29;19953;-73
2022/07/04 07:28:36;;;;;;;;;;;;;;;30.69;58.45;98424.97;4826965;29;19944;-73
2022/07/04 07:31:03;;;;;;;;;;;;;;;30.79;57.33;98417.56;4826638;29;19955;-73
2022/07/04 07:33:31;;;;;;;;;;;;;;;30.89;61.37;98420.94;4826209;29;19978;-73
2022/07/04 07:35:58;;;;;;;;;;;;;;;31.10;58.46;98425.06;4826243;29;19954;-73
2022/07/04 07:38:25;;;;;;;;;;;;;;;31.00;55.90;98418.81;4820157;29;20221;-73
2022/07/04 07:40:52;;;;;;;;;;;;;;;30.76;61.58;98406.31;4813515;29;19959;-73
2022/07/04 07:43:20;;;;;;;;;;;;;;;30.63;60.89;98409.78;4828635;29;19956;-73
2022/07/04 07:45:47;;;;;;;;;;;;;;;30.31;66.11;98414.34;4838798;29;20382;-73
2022/07/04 07:48:14;;;;;;;;;;;;;;;30.15;68.06;98413.06;4814843;29;19977;-73
2022/07/04 07:50:42;;;;;;;;;;;;;;;29.85;72.05;98409.22;4827885;29;19959;-73
2022/07/04 07:53:09;;;;;;;;;;;;;;;29.66;71.91;98411.81;4834747;29;19956;-73
2022/07/04 07:55:37;;;;;;;;;;;;;;;29.54;71.57;98415.25;4843471;29;20381;-73
2022/07/04 07:58:04;;;;;;;;;;;;;;;29.79;71.42;98417.06;4840965;29;19956;-73
2022/07/04 08:00:32;;;;;;;;;;;;;;;30.07;70.73;98412.06;4814246;29;19958;-73
2022/07/04 08:06:05;;;;;;;;;;;;;;;30.67;68.23;98401.63;4834666;29;19951;-73
2022/07/04 08:08:32;;;;;;;;;;;;;;;30.72;68.13;98400.81;4842248;29;19948;-73
2022/07/04 08:10:59;;;;;;;;;;;;;;;30.46;66.30;98394.66;4822367;29;19957;-73
2022/07/04 08:13:26;;;;;;;;;;;;;;;30.39;68.64;98396.00;4831339;29;19949;-73
2022/07/04 08:15:54;;;;;;;;;;;;;;;30.27;69.49;98388.66;4833201;29;19983;-73
2022/07/04 08:18:22;;;;;;;;;;;;;;;30.25;74.65;98384.75;4820948;29;20246;-73
2022/07/04 08:20:50;;;;;;;;;;;;;;;30.17;78.29;98396.03;4824738;29;19962;-73
2022/07/04 08:23:35;;;;;;;;;;;;;;;30.07;77.78;98403.41;4828793;29;19965;-73
2022/07/04 08:26:03;;;;;;;;;;;;;;;30.02;77.94;98406.28;4827358;29;19953;-73
2022/07/04 08:28:31;;;;;;;;;;;;;;;29.99;80.63;98408.13;4824373;29;19945;-73
2022/07/04 08:30:58;;;;;;;;;;;;;;;29.87;83.46;98401.59;4844329;29;19953;-73
2022/07/04 08:33:25;;;;;;;;;;;;;;;29.70;85.08;98383.53;4843909;29;19948;-73
2022/07/04 08:35:53;;;;;;;;;;;;;;;29.61;91.56;98378.03;4844526;29;19950;-73
2022/07/04 08:38:21;;;;;;;;;;;;;;;29.46;94.11;98377.50;4843880;29;19952;-73
2022/07/04 08:40:50;;;;;;;;;;;;;;;29.28;90.70;98378.81;4827085;29;20262;-73
2022/07/04 08:43:21;;;;;;;;;;;;;;;29.17;93.88;98395.28;4826107;29;19950;-73
2022/07/04 08:45:49;;;;;;;;;;;;;;;29.10;92.83;98401.56;4825842;29;19963;-73
2022/07/04 08:48:38;;;;;;;;;;;;;;;28.96;92.10;98406.22;4825438;29;19978;-73
2022/07/04 08:51:14;;;;;;;;;;;;;;;28.96;93.04;98414.88;4826016;29;19959;-73
2022/07/04 08:53:50;;;;;;;;;;;;;;;29.09;92.43;98415.16;4825568;29;19953;-73
2022/07/04 08:59:05;;;;;;;;;;;;;;;29.35;93.75;98422.81;4825382;29;19963;-73
2022/07/04 09:01:32;;;;;;;;;;;;;;;29.37;92.19;98418.09;4816069;29;19952;-73
2022/07/04 09:04:00;;;;;;;;;;;;;;;29.63;90.69;98417.84;4819277;29;19953;-73
2022/07/04 09:06:29;;;;;;;;;;;;;;;29.85;91.43;98420.75;4831818;29;19956;-73
2022/07/04 09:08:56;;;;;;;;;;;;;;;29.90;92.17;98417.88;4843295;29;19955;-73
2022/07/04 09:11:24;;;;;;;;;;;;;;;29.64;92.76;98410.75;4833544;29;19959;-73
2022/07/04 09:13:51;;;;;;;;;;;;;;;29.73;93.32;98405.53;4816700;29;19966;-73
2022/07/04 09:16:18;;;;;;;;;;;;;;;29.43;90.64;98398.72;4824377;29;20330;-73
2022/07/04 09:18:45;;;;;;;;;;;;;;;29.32;93.34;98389.31;4802866;29;19954;-73
2022/07/04 09:21:13;;;;;;;;;;;;;;;29.33;95.28;98394.53;4838449;29;20247;-73
2022/07/04 09:23:41;;;;;;;;;;;;;;;29.27;89.66;98402.41;4837133;29;19961;-73
2022/07/04 09:26:16;;;;;;;;;;;;;;;28.97;97.05;98393.41;4838318;29;19950;-73
2022/07/04 09:28:44;;;;;;;;;;;;;;;28.96;98.35;98388.94;4842100;29;19971;-73
2022/07/04 09:31:19;;;;;;;;;;;;;;;28.61;94.87;98388.63;4831754;29;19982;-73
2022/07/04 09:33:49;;;;;;;;;;;;;;;28.59;97.33;98396.91;4835643;29;20239;-73
2022/07/04 09:36:17;;;;;;;;;;;;;;;28.48;99.54;98397.69;4836224;29;19949;-73
2022/07/04 09:38:45;;;;;;;;;;;;;;;28.32;99.59;98391.84;4810919;29;19960;-73
2022/07/04 09:41:34;;;;;;;;;;;;;;;28.27;97.70;98395.50;4810402;29;19951;-73
2022/07/04 09:44:04;;;;;;;;;;;;;;;28.23;100.00;98403.56;4810176;29;19960;-73
2022/07/04 09:46:34;;;;;;;;;;;;;;;28.24;98.57;98417.44;4810121;29;19947;-73
2022/07/04 09:49:01;;;;;;;;;;;;;;;28.21;98.88;98417.69;4824152;29;19987;-73
2022/07/04 09:51:39;;;;;;;;;;;;;;;28.20;100.00;98421.84;4844023;29;19957;-73
2022/07/04 09:54:13;;;;;;;;;;;;;;;28.22;100.00;98414.28;4817067;29;19950;-73
2022/07/04 09:56:41;;;;;;;;;;;;;;;28.26;100.00;98423.47;4831313;29;19952;-73
2022/07/04 09:59:08;;;;;;;;;;;;;;;28.25;100.00;98421.09;4829355;29;19948;-73
2022/07/04 10:01:36;;;;;;;;;;;;;;;28.23;100.00;98427.38;4838625;29;20258;-73
2022/07/04 10:04:03;;;;;;;;;;;;;;;28.10;100.00;98434.88;4838398;29;19953;-72
2022/07/04 10:06:31;;;;;;;;;;;;;;;28.07;100.00;98441.66;4846682;29;20339;-73
2022/07/04 10:09:10;;;;;;;;;;;;;;;28.11;100.00;98443.00;4846549;29;19958;-73
2022/07/04 10:11:38;;;;;;;;;;;;;;;28.04;100.00;98449.22;4846500;29;20248;-73
2022/07/04 10:14:07;;;;;;;;;;;;;;;28.02;100.00;98451.81;4846887;29;19949;-73
2022/07/04 10:16:35;;;;;;;;;;;;;;;28.06;100.00;98465.94;4846093;29;19951;-73
2022/07/04 10:19:03;;;;;;;;;;;;;;;28.06;100.00;98471.69;4846271;29;20216;-73
2022/07/04 10:21:31;;;;;;;;;;;;;;;28.15;100.00;98475.16;4846409;29;20344;-73
2022/07/04 10:23:58;;;;;;;;;;;;;;;28.26;100.00;98469.50;4846157;29;19950;-73
2022/07/04 10:26:28;;;;;;;;;;;;;;;28.46;100.00;98475.06;4846819;29;19949;-73
2022/07/04 10:28:56;;;;;;;;;;;;;;;28.79;100.00;98476.56;4845833;29;20356;-73
2022/07/04 10:31:25;;;;;;;;;;;;;;;29.16;100.00;98469.38;4845650;29;19961;-73
2022/07/04 10:33:54;;;;;;;;;;;;;;;29.51;100.00;98471.81;4845583;29;20496;-73
2022/07/04 10:36:22;;;;;;;;;;;;;;;29.71;100.00;98476.56;4846103;29;19971;-73
2022/07/04 10:38:52;;;;;;;;;;;;;;;29.85;96.98;98472.63;4845447;29;19953;-73
2022/07/04 10:41:21;;;;;;;;;;;;;;;29.90;100.00;98466.09;4845523;29;20340;-73
2022/07/04 10:43:52;;;;;;;;;;;;;;;30.10;100.00;98462.94;4845798;29;19957;-73
2022/07/04 10:46:22;;;;;;;;;;;;;;;30.15;99.88;98459.22;4845727;29;19954;-73
2022/07/04 10:48:54;;;;;;;;;;;;;;;29.91;96.08;98456.09;4845453;29;19976;-73
2022/07/04 10:51:37;;;;;;;;;;;;;;;30.02;97.23;98452.44;4845699;29;19951;-73
2022/07/04 10:54:07;;;;;;;;;;;;;;;30.05;95.39;98451.38;4845567;29;19974;-73
2022/07/04 10:56:39;;;;;;;;;;;;;;;30.18;94.79;98454.50;4845444;29;19975;-73
2022/07/04 10:59:14;;;;;;;;;;;;;;;30.31;100.00;98446.09;4829260;29;20270;-73
2022/07/04 11:01:48;;;;;;;;;;;;;;;30.25;91.11;98448.97;4845594;29;19956;-73
2022/07/04 11:04:48;;;;;;;;;;;;;;;30.44;93.21;98444.25;4845026;29;20347;-73
2022/07/04 11:07:42;;;;;;;;;;;;;;;30.44;90.47;98446.34;4845201;29;19962;-73
2022/07/04 11:10:20;;;;;;;;;;;;;;;30.54;91.29;98442.63;4821306;29;19956;-73
2022/07/04 11:12:51;;;;;;;;;;;;;;;30.57;90.24;98440.00;4835085;29;19951;-73
2022/07/04 11:15:39;;;;;;;;;;;;;;;30.78;93.41;98441.22;4840771;29;19967;-73
2022/07/04 11:18:10;;;;;;;;;;;;;;;30.81;91.97;98440.16;4831423;29;19982;-73
2022/07/04 11:20:43;;;;;;;;;;;;;;;30.82;93.56;98444.59;4832067;29;19949;-73
2022/07/04 11:23:11;;;;;;;;;;;;;;;30.88;93.27;98442.50;4834909;29;19962;-73
2022/07/04 11:25:40;;;;;;;;;;;;;;;30.72;88.14;98437.56;4830347;29;19947;-73
2022/07/04 11:28:26;;;;;;;;;;;;;;;30.83;92.51;98432.53;4828396;29;20267;-73
2022/07/04 11:31:10;;;;;;;;;;;;;;;30.82;91.32;98421.50;4825845;29;19955;-73
2022/07/04 11:33:39;;;;;;;;;;;;;;;30.83;90.09;98423.09;4831669;29;19979;-73
2022/07/04 11:36:14;;;;;;;;;;;;;;;30.88;87.35;98419.38;4845017;29;19970;-73
2022/07/04 11:38:53;;;;;;;;;;;;;;;30.85;87.91;98412.56;4823750;29;19958;-73
2022/07/04 11:47:05;;;;;;;;;;;;;;;30.69;84.30;98413.44;4819295;29;19959;-73
2022/07/04 11:49:32;;;;;;;;;;;;;;;30.85;89.86;98406.00;4817012;29;20421;-73
2022/07/04 11:51:59;;;;;;;;;;;;;;;30.82;81.84;98407.06;4828941;29;19952;-73
2022/07/04 11:54:27;;;;;;;;;;;;;;;30.97;85.15;98402.56;4825714;29;20264;-73
2022/07/04 11:57:10;;;;;;;;;;;;;;;30.89;81.03;98398.66;4829622;29;20459;-74
2022/07/04 11:59:37;;;;;;;;;;;;;;;31.02;88.55;98395.97;4829174;29;19950;-73
2022/07/04 12:02:15;;;;;;;;;;;;;;;31.08;85.61;98384.38;4828223;29;19962;-73
2022/07/04 12:04:43;;;;;;;;;;;;;;;31.19;89.47;98381.41;4829539;29;19951;-73
2022/07/04 12:07:10;;;;;;;;;;;;;;;31.10;87.38;98376.75;4839298;29;20270;-73
2022/07/04 12:09:38;;;;;;;;;;;;;;;30.90;82.23;98377.13;4833577;29;19960;-74
2022/07/04 12:12:06;;;;;;;;;;;;;;;30.97;82.53;98378.66;4832907;29;20267;-73
2022/07/04 12:14:33;;;;;;;;;;;;;;;31.00;82.94;98374.69;4838223;29;19959;-73
2022/07/04 12:17:19;;;;;;;;;;;;;;;30.87;80.24;98372.38;4824172;29;19980;-74
2022/07/04 12:19:57;;;;;;;;;;;;;;;30.96;82.88;98372.09;4828692;29;19951;-73
2022/07/04 12:22:29;;;;;;;;;;;;;;;31.10;85.82;98373.06;4831435;29;19952;-73
2022/07/04 12:24:57;;;;;;;;;;;;;;;31.16;84.95;98360.13;4843822;29;19962;-73
2022/07/04 12:27:25;;;;;;;;;;;;;;;31.31;83.39;98356.88;4844740;29;19952;-73
2022/07/04 12:29:53;;;;;;;;;;;;;;;31.34;81.87;98355.81;4842163;29;19956;-73
2022/07/04 12:32:21;;;;;;;;;;;;;;;31.37;80.63;98351.84;4825205;29;19964;-73
2022/07/04 12:34:52;;;;;;;;;;;;;;;31.56;75.53;98346.19;4823947;29;19953;-73
2022/07/04 12:37:19;;;;;;;;;;;;;;;31.61;78.64;98342.44;4833908;29;20534;-74
2022/07/04 12:39:46;;;;;;;;;;;;;;;31.60;77.66;98340.88;4834786;29;19945;-73
2022/07/04 12:42:15;;;;;;;;;;;;;;;31.54;79.43;98329.38;4821230;29;19952;-74
2022/07/04 12:44:44;;;;;;;;;;;;;;;31.12;71.51;98321.31;4830705;29;19952;-73
2022/07/04 12:47:11;;;;;;;;;;;;;;;31.20;70.45;98323.06;4820222;29;20367;-74
2022/07/04 12:49:44;;;;;;;;;;;;;;;31.35;72.00;98322.66;4829038;29;19951;-74
2022/07/04 12:52:13;;;;;;;;;;;;;;;31.46;74.75;98313.16;4838983;29;19953;-73
2022/07/04 12:54:41;;;;;;;;;;;;;;;31.50;79.60;98311.53;4827160;29;19954;-74
2022/07/04 12:57:13;;;;;;;;;;;;;;;31.45;76.03;98300.81;4810375;29;20277;-73
2022/07/04 12:59:41;;;;;;;;;;;;;;;31.54;74.76;98294.69;4829805;29;19961;-73
2022/07/04 13:02:09;;;;;;;;;;;;;;;31.59;74.78;98282.28;4829766;29;19957;-73
2022/07/04 13:04:36;;;;;;;;;;;;;;;31.64;69.76;98287.19;4845448;29;19946;-73
2022/07/04 13:07:16;;;;;;;;;;;;;;;31.59;72.53;98290.97;4836052;29;19959;-74
2022/07/04 13:09:44;;;;;;;;;;;;;;;31.62;74.59;98289.84;4835927;29;19967;-73
2022/07/04 13:12:24;;;;;;;;;;;;;;;31.64;73.94;98287.19;4836605;29;19960;-73
2022/07/04 13:14:52;;;;;;;;;;;;;;;31.66;70.96;98290.34;4844102;29;19959;-74
2022/07/04 13:17:20;;;;;;;;;;;;;;;31.60;68.89;98294.63;4843967;29;19973;-73
2022/07/04 13:19:47;;;;;;;;;;;;;;;31.69;66.22;98280.56;4832278;29;19952;-73
2022/07/04 13:22:14;;;;;;;;;;;;;;;31.77;70.92;98275.75;4834276;29;19953;-73
2022/07/04 13:24:42;;;;;;;;;;;;;;;31.81;73.33;98258.13;4838859;29;19968;-73
2022/07/04 13:27:09;;;;;;;;;;;;;;;31.81;75.31;98258.13;4843961;29;19960;-73
2022/07/04 13:29:36;;;;;;;;;;;;;;;31.73;72.54;98255.06;4845825;29;19950;-73
2022/07/04 13:32:04;;;;;;;;;;;;;;;31.73;73.47;98252.16;4821285;29;19953;-73
2022/07/04 13:34:35;;;;;;;;;;;;;;;31.77;74.67;98243.16;4834891;29;19953;-73
2022/07/04 13:37:02;;;;;;;;;;;;;;;31.72;72.34;98239.03;4827102;29;19963;-73
2022/07/04 13:39:30;;;;;;;;;;;;;;;31.71;75.87;98246.16;4844512;29;19949;-73
2022/07/04 13:42:56;;;;;;;;;;;;;;;31.55;68.57;98237.63;4840269;29;19953;-73
2022/07/04 13:45:03;;;;;;;;;;;;;;;31.64;69.38;98243.84;4834445;29;19964;-73
2022/07/04 13:47:30;;;;;;;;;;;;;;;31.69;77.85;98231.44;4840563;29;20370;-73
2022/07/04 13:49:57;;;;;;;;;;;;;;;31.70;73.37;98241.69;4840382;29;19959;-73
2022/07/04 13:52:25;;;;;;;;;;;;;;;31.68;75.65;98234.88;4840798;29;19957;-74
2022/07/04 13:54:52;;;;;;;;;;;;;;;31.71;71.95;98230.91;4822375;29;19953;-74
2022/07/04 13:57:19;;;;;;;;;;;;;;;31.67;72.01;98221.72;4824838;29;20400;-73
2022/07/04 13:59:47;;;;;;;;;;;;;;;31.74;71.83;98233.47;4836361;29;19960;-73
2022/07/04 14:02:14;;;;;;;;;;;;;;;31.69;66.53;98222.75;4820248;29;19951;-73
2022/07/04 14:04:41;;;;;;;;;;;;;;;31.68;73.27;98224.09;4844844;29;19954;-73
2022/07/04 14:07:08;;;;;;;;;;;;;;;31.66;74.56;98220.97;4846482;29;19952;-73
2022/07/04 14:09:39;;;;;;;;;;;;;;;31.61;68.16;98212.34;4823952;29;19947;-73
2022/07/04 14:12:06;;;;;;;;;;;;;;;31.66;67.59;98209.41;4826982;29;19961;-73
2022/07/04 14:14:34;;;;;;;;;;;;;;;31.72;67.73;98207.22;4840027;29;19954;-73
2022/07/04 14:17:01;;;;;;;;;;;;;;;31.76;74.29;98204.03;4828713;29;19971;-73
2022/07/04 14:19:33;;;;;;;;;;;;;;;31.78;67.08;98213.72;4833772;29;20349;-73
2022/07/04 14:22:00;;;;;;;;;;;;;;;31.74;64.86;98203.78;4823734;29;20266;-73
2022/07/04 14:24:28;;;;;;;;;;;;;;;31.78;67.40;98204.25;4836185;29;19950;-73
2022/07/04 14:26:55;;;;;;;;;;;;;;;31.76;64.96;98201.94;4837878;29;19950;-73
2022/07/04 14:29:22;;;;;;;;;;;;;;;31.81;68.79;98200.28;4840441;29;19977;-73
2022/07/04 14:31:51;;;;;;;;;;;;;;;31.71;66.56;98202.78;4844772;29;19953;-73
2022/07/04 14:34:18;;;;;;;;;;;;;;;31.79;65.45;98200.06;4832071;29;19954;-73
2022/07/04 14:36:45;;;;;;;;;;;;;;;31.78;66.46;98207.16;4829708;29;19969;-73
2022/07/04 14:39:13;;;;;;;;;;;;;;;31.87;73.19;98191.50;4843421;29;19956;-73
2022/07/04 14:41:40;;;;;;;;;;;;;;;31.84;69.02;98191.28;4832965;29;19963;-74
2022/07/04 14:44:07;;;;;;;;;;;;;;;31.92;67.12;98181.97;4832968;29;19960;-74
2022/07/04 14:46:34;;;;;;;;;;;;;;;31.93;72.74;98184.34;4819418;29;19959;-73
2022/07/04 14:49:02;;;;;;;;;;;;;;;31.90;69.14;98179.66;4842426;29;19975;-73
2022/07/04 14:51:29;;;;;;;;;;;;;;;31.88;70.31;98187.31;4844025;29;19953;-73
2022/07/04 14:53:56;;;;;;;;;;;;;;;31.74;67.39;98183.56;4830351;29;19958;-73
2022/07/04 14:56:24;;;;;;;;;;;;;;;31.71;69.62;98173.84;4831914;29;19957;-73
2022/07/04 14:58:51;;;;;;;;;;;;;;;31.74;68.74;98161.19;4830937;29;19984;-73
2022/07/04 15:01:19;;;;;;;;;;;;;;;31.76;73.19;98166.44;4832756;29;19949;-73
2022/07/04 15:03:47;;;;;;;;;;;;;;;31.83;68.38;98163.72;4839542;29;19952;-74
2022/07/04 15:06:14;;;;;;;;;;;;;;;31.84;68.20;98165.25;4844486;29;19988;-73
2022/07/04 15:08:41;;;;;;;;;;;;;;;31.95;67.63;98166.44;4838257;29;20002;-74
2022/07/04 15:11:09;;;;;;;;;;;;;;;31.94;69.97;98156.22;4833932;29;20380;-74
2022/07/04 15:13:38;;;;;;;;;;;;;;;32.01;71.22;98158.50;4837837;29;19945;-73
2022/07/04 15:16:06;;;;;;;;;;;;;;;31.89;67.98;98146.25;4836540;29;19956;-74
2022/07/04 15:18:50;;;;;;;;;;;;;;;31.67;68.59;98155.22;4836442;29;19955;-74
2022/07/04 15:24:15;;;;;;;;;;;;;;;31.47;71.54;98155.75;4834576;29;19952;-73
2022/07/04 15:26:50;;;;;;;;;;;;;;;31.34;75.73;98155.63;4840331;29;20004;-74
2022/07/04 15:29:19;;;;;;;;;;;;;;;31.16;75.71;98143.47;4829349;29;19953;-74
2022/07/04 15:31:48;;;;;;;;;;;;;;;30.95;80.17;98141.59;4832005;29;20242;-74
2022/07/04 15:34:16;;;;;;;;;;;;;;;30.86;77.16;98141.91;4832298;29;20279;-74
2022/07/04 15:36:43;;;;;;;;;;;;;;;30.76;73.54;98140.69;4838032;29;20245;-74
2022/07/04 15:39:12;;;;;;;;;;;;;;;30.71;75.43;98138.66;4830262;29;19959;-74
2022/07/04 15:41:40;;;;;;;;;;;;;;;30.60;79.67;98139.53;4821746;29;19972;-73
2022/07/04 15:44:08;;;;;;;;;;;;;;;30.49;80.91;98131.72;4830745;29;19952;-73
2022/07/04 15:47:07;;;;;;;;;;;;;;;30.38;83.03;98125.28;4828636;29;19956;-74
2022/07/04 15:49:22;;;;;;;;;;;;;;;30.26;85.90;98118.00;4839243;29;19976;-73
2022/07/04 15:51:50;;;;;;;;;;;;;;;30.16;86.39;98119.63;4842835;29;20469;-73
2022/07/04 15:54:17;;;;;;;;;;;;;;;30.09;87.08;98123.09;4839619;29;19982;-73
2022/07/04 15:56:44;;;;;;;;;;;;;;;30.07;84.98;98125.75;4830171;29;19959;-73
2022/07/04 15:59:11;;;;;;;;;;;;;;;30.07;83.95;98131.50;4832370;29;19960;-73
2022/07/04 16:01:40;;;;;;;;;;;;;;;30.09;85.36;98140.41;4825588;29;20394;-73
2022/07/04 16:04:07;;;;;;;;;;;;;;;30.08;86.12;98154.03;4834456;29;19959;-73
2022/07/04 16:06:35;;;;;;;;;;;;;;;30.07;85.42;98166.13;4826334;29;20347;-73
2022/07/04 16:09:02;;;;;;;;;;;;;;;30.12;81.58;98168.19;4823130;29;20321;-73
2022/07/04 16:11:29;;;;;;;;;;;;;;;30.05;83.03;98172.44;4820261;29;19952;-73
2022/07/04 16:13:56;;;;;;;;;;;;;;;30.02;82.17;98166.94;4835028;29;19960;-73
2022/07/04 16:16:24;;;;;;;;;;;;;;;29.97;81.91;98159.09;4836967;29;19962;-74
2022/07/04 16:18:51;;;;;;;;;;;;;;;29.92;82.74;98160.69;4821184;29;19971;-74
2022/07/04 16:21:19;;;;;;;;;;;;;;;29.86;87.98;98169.38;4808282;29;19957;-73
2022/07/04 16:23:46;;;;;;;;;;;;;;;29.79;90.35;98166.25;4808292;29;19959;-73
2022/07/04 16:26:13;;;;;;;;;;;;;;;29.72;93.43;98173.34;4813782;29;19951;-73
2022/07/04 16:28:40;;;;;;;;;;;;;;;29.61;94.27;98187.81;4842773;29;19981;-73
2022/07/04 16:31:08;;;;;;;;;;;;;;;29.53;92.17;98192.56;4832710;29;19957;-74
2022/07/04 16:33:38;;;;;;;;;;;;;;;29.44;92.28;98203.59;4824854;29;20227;-73
2022/07/04 16:36:06;;;;;;;;;;;;;;;29.40;91.19;98217.47;4823137;29;19947;-73
2022/07/04 16:38:33;;;;;;;;;;;;;;;29.35;93.30;98232.66;4839503;29;19977;-73
2022/07/04 16:41:00;;;;;;;;;;;;;;;29.31;95.50;98266.72;4844222;29;19956;-73
2022/07/04 16:43:28;;;;;;;;;;;;;;;29.21;100.00;98290.06;4832743;29;19950;-73
2022/07/04 16:45:55;;;;;;;;;;;;;;;28.84;100.00;98312.50;4832669;29;19960;-73
2022/07/04 16:48:22;;;;;;;;;;;;;;;28.65;100.00;98322.94;4836296;29;19970;-73
2022/07/04 16:50:50;;;;;;;;;;;;;;;28.46;100.00;98339.84;4842566;29;19971;-73
2022/07/04 16:53:17;;;;;;;;;;;;;;;28.33;100.00;98321.53;4815704;29;19950;-73
2022/07/04 16:55:45;;;;;;;;;;;;;;;28.04;100.00;98351.47;4824448;29;19949;-73
2022/07/04 16:58:12;;;;;;;;;;;;;;;27.80;100.00;98369.06;4825972;29;19970;-73
2022/07/04 17:00:39;;;;;;;;;;;;;;;27.45;100.00;98362.03;4825869;29;19950;-74
2022/07/04 17:03:06;;;;;;;;;;;;;;;27.05;100.00;98362.94;4800687;29;19962;-74
2022/07/04 17:05:34;;;;;;;;;;;;;;;26.80;100.00;98330.09;4823556;29;19948;-74
2022/07/04 17:08:01;;;;;;;;;;;;;;;26.47;100.00;98287.50;4831053;29;19952;-74
2022/07/04 17:10:29;;;;;;;;;;;;;;;26.30;100.00;98286.56;4825840;29;19951;-74
2022/07/04 17:12:56;;;;;;;;;;;;;;;26.10;100.00;98264.41;4825988;29;20500;-75
2022/07/04 17:15:23;;;;;;;;;;;;;;;26.09;100.00;98300.06;4835317;29;19955;-75
2022/07/04 17:17:51;;;;;;;;;;;;;;;26.13;96.19;98296.25;4833071;29;20362;-74
2022/07/04 17:20:18;;;;;;;;;;;;;;;26.22;84.73;98305.47;4823996;29;20352;-74
2022/07/04 17:22:46;;;;;;;;;;;;;;;26.32;81.51;98332.69;4824142;29;19952;-73
2022/07/04 17:25:13;;;;;;;;;;;;;;;26.38;85.07;98332.78;4829030;29;19961;-74
2022/07/04 17:27:41;;;;;;;;;;;;;;;26.35;87.92;98323.09;4838483;29;19985;-73
2022/07/04 17:30:11;;;;;;;;;;;;;;;26.36;83.94;98284.50;4838492;29;19953;-74
2022/07/04 17:32:39;;;;;;;;;;;;;;;26.43;81.65;98261.16;4821390;29;19955;-74
2022/07/04 17:35:07;;;;;;;;;;;;;;;26.55;76.47;98233.34;4823803;29;19956;-73
2022/07/04 17:37:34;;;;;;;;;;;;;;;26.59;72.13;98225.31;4815128;29;20267;-73
2022/07/04 17:40:05;;;;;;;;;;;;;;;26.61;67.23;98217.75;4824945;29;19972;-74
2022/07/04 17:42:32;;;;;;;;;;;;;;;26.65;67.04;98229.03;4823119;29;19953;-74
2022/07/04 17:44:59;;;;;;;;;;;;;;;26.65;63.56;98198.22;4821247;29;20385;-74
2022/07/04 17:47:26;;;;;;;;;;;;;;;26.63;64.73;98189.34;4839955;29;19951;-73
2022/07/04 17:49:54;;;;;;;;;;;;;;;26.68;69.26;98184.94;4833403;29;19960;-74
2022/07/04 17:52:21;;;;;;;;;;;;;;;26.56;72.83;98183.28;4830255;29;19953;-73
2022/07/04 17:54:49;;;;;;;;;;;;;;;26.34;72.46;98172.41;4831224;29;19958;-73
2022/07/04 17:57:17;;;;;;;;;;;;;;;26.23;74.02;98148.59;4833054;29;19955;-74
2022/07/04 17:59:47;;;;;;;;;;;;;;;26.29;66.83;98141.63;4835377;29;19971;-74
2022/07/04 18:02:14;;;;;;;;;;;;;;;26.29;71.46;98112.94;4827779;29;19961;-74
2022/07/04 18:04:42;;;;;;;;;;;;;;;26.22;76.68;98061.81;4826528;29;20354;-74
2022/07/04 18:07:10;;;;;;;;;;;;;;;26.05;75.92;98069.47;4839302;29;19953;-73
2022/07/04 18:09:39;;;;;;;;;;;;;;;26.01;76.16;98006.66;4833017;29;19964;-73
2022/07/04 18:12:06;;;;;;;;;;;;;;;25.92;75.96;97968.81;4828326;29;19959;-73
2022/07/04 18:14:34;;;;;;;;;;;;;;;25.87;74.30;98024.75;4839232;29;19959;-73
2022/07/04 18:17:02;;;;;;;;;;;;;;;25.74;91.95;98095.22;4836861;29;19953;-73
2022/07/04 18:19:29;;;;;;;;;;;;;;;25.76;75.66;98121.28;4826697;29;19973;-73
2022/07/04 18:21:59;;;;;;;;;;;;;;;25.81;71.13;98123.41;4832770;29;20247;-74
2022/07/04 18:24:26;;;;;;;;;;;;;;;25.92;70.04;98135.00;4835539;29;19958;-73
2022/07/04 18:26:54;;;;;;;;;;;;;;;26.01;67.58;98140.56;4842266;29;19949;-73
2022/07/04 18:29:21;;;;;;;;;;;;;;;26.05;70.47;98153.34;4825498;29;19952;-73
2022/07/04 18:31:49;;;;;;;;;;;;;;;26.09;69.91;98142.44;4823942;29;19952;-73
2022/07/04 18:34:17;;;;;;;;;;;;;;;26.15;67.38;98147.47;4831475;29;19959;-73
2022/07/04 18:36:44;;;;;;;;;;;;;;;26.16;71.92;98155.59;4825288;29;19961;-73
2022/07/04 18:39:11;;;;;;;;;;;;;;;26.16;72.95;98158.44;4837170;29;20236;-73
2022/07/04 18:44:25;;;;;;;;;;;;;;;26.15;71.17;98159.72;4831145;29;20292;-74
2022/07/04 18:46:52;;;;;;;;;;;;;;;26.15;73.57;98154.00;4831742;29;20344;-73
2022/07/04 18:49:21;;;;;;;;;;;;;;;26.16;73.24;98164.19;4837725;29;19981;-74
2022/07/04 18:51:48;;;;;;;;;;;;;;;26.17;74.67;98164.94;4830659;29;19959;-74
2022/07/04 18:54:15;;;;;;;;;;;;;;;26.14;74.15;98161.00;4814898;29;19957;-74
2022/07/04 18:56:43;;;;;;;;;;;;;;;26.14;73.22;98181.06;4821713;29;19954;-74
2022/07/04 18:59:10;;;;;;;;;;;;;;;26.09;73.93;98188.31;4824468;29;20734;-73
2022/07/04 19:01:37;;;;;;;;;;;;;;;26.11;70.03;98207.91;4820563;29;19949;-73